createdAt,value
2019-06-26T00:02:15.867Z,16.63
2019-06-26T00:04:45.529Z,15.30
2019-06-26T00:07:15.542Z,18.00
2019-06-26T00:09:45.232Z,15.27
2019-06-26T00:12:15.024Z,16.30
2019-06-26T00:14:44.949Z,16.63
2019-06-26T00:17:14.831Z,18.00
2019-06-26T00:19:44.558Z,15.37
2019-06-26T00:22:14.249Z,16.37
2019-06-26T00:24:43.931Z,15.30
2019-06-26T00:27:13.637Z,16.00
2019-06-26T00:29:43.317Z,14.60
2019-06-26T00:32:12.975Z,18.43
2019-06-26T00:34:42.716Z,18.60
2019-06-26T00:37:12.421Z,17.07
2019-06-26T00:39:42.214Z,15.90
2019-06-26T00:42:11.923Z,18.13
2019-06-26T00:44:41.660Z,14.77
2019-06-26T00:47:11.548Z,17.10
2019-06-26T00:49:41.254Z,18.60
2019-06-26T00:52:11.033Z,16.90
2019-06-26T00:54:40.709Z,17.93
2019-06-26T00:57:10.510Z,17.10
2019-06-26T00:59:40.230Z,16.27
2019-06-26T01:02:09.903Z,20.53
2019-06-26T01:04:42.133Z,16.63
2019-06-26T01:07:11.972Z,20.10
2019-06-26T01:09:41.676Z,16.87
2019-06-26T01:12:11.386Z,19.03
2019-06-26T01:14:41.115Z,28.93
2019-06-26T01:17:10.989Z,18.83
2019-06-26T01:19:40.702Z,19.67
2019-06-26T01:22:10.412Z,18.50
2019-06-26T01:24:40.189Z,17.40
2019-06-26T01:27:10.282Z,16.20
2019-06-26T01:29:39.954Z,17.60
2019-06-26T01:32:09.656Z,16.47
2019-06-26T01:34:39.389Z,17.63
2019-06-26T01:37:09.164Z,18.13
2019-06-26T01:39:38.966Z,24.90
2019-06-26T01:42:08.690Z,19.80
2019-06-26T01:44:38.394Z,19.80
2019-06-26T01:47:08.146Z,15.43
2019-06-26T01:49:37.874Z,16.37
2019-06-26T01:52:07.587Z,17.60
2019-06-26T01:54:37.361Z,24.00
2019-06-26T01:57:07.385Z,17.80
2019-06-26T01:59:37.414Z,17.90
2019-06-26T02:02:07.136Z,16.10
2019-06-26T02:04:36.894Z,22.30
2019-06-26T02:07:06.663Z,19.30
2019-06-26T02:09:36.638Z,20.87
2019-06-26T02:12:06.420Z,17.73
2019-06-26T02:14:36.187Z,18.07
2019-06-26T02:17:06.061Z,23.37
2019-06-26T02:19:35.774Z,16.50
2019-06-26T02:22:05.576Z,18.50
2019-06-26T02:24:35.673Z,22.67
2019-06-26T02:27:05.359Z,17.93
2019-06-26T02:29:35.068Z,16.53
2019-06-26T02:32:04.833Z,24.63
2019-06-26T02:34:34.517Z,19.20
2019-06-26T02:37:04.255Z,22.57
2019-06-26T02:39:53.248Z,23.20
2019-06-26T02:42:22.880Z,16.37
2019-06-26T02:44:54.354Z,23.50
2019-06-26T02:47:24.096Z,22.03
2019-06-26T02:49:54.108Z,19.77
2019-06-26T02:52:23.800Z,21.33
2019-06-26T02:54:53.732Z,19.00
2019-06-26T02:57:23.634Z,21.20
2019-06-26T02:59:53.357Z,20.23
2019-06-26T03:02:23.084Z,23.77
2019-06-26T03:04:52.849Z,23.33
2019-06-26T03:07:22.531Z,23.90
2019-06-26T03:09:52.225Z,23.47
2019-06-26T03:12:21.941Z,21.07
2019-06-26T03:15:04.655Z,45.27
2019-06-26T03:17:23.618Z,25.60
2019-06-26T03:19:53.486Z,26.13
2019-06-26T03:22:23.163Z,20.23
2019-06-26T03:24:52.947Z,23.90
2019-06-26T03:27:22.716Z,23.43
2019-06-26T03:29:52.410Z,18.90
2019-06-26T03:32:22.084Z,22.00
2019-06-26T03:34:51.823Z,22.10
2019-06-26T03:37:21.501Z,19.40
2019-06-26T03:39:51.219Z,20.17
2019-06-26T03:42:20.893Z,20.27
2019-06-26T03:44:50.565Z,28.33
2019-06-26T03:47:20.370Z,24.33
2019-06-26T03:49:50.062Z,20.43
2019-06-26T03:52:19.779Z,22.77
2019-06-26T03:54:49.484Z,22.00
2019-06-26T03:57:19.427Z,20.27
2019-06-26T03:59:49.161Z,23.07
2019-06-26T04:02:18.945Z,25.83
2019-06-26T04:04:48.593Z,29.20
2019-06-26T04:07:18.334Z,22.90
2019-06-26T04:09:48.032Z,22.60
2019-06-26T04:12:17.903Z,26.93
2019-06-26T04:14:47.552Z,24.60
2019-06-26T04:17:17.283Z,22.23
2019-06-26T04:19:46.940Z,21.40
2019-06-26T04:22:16.596Z,23.47
2019-06-26T04:24:46.312Z,23.80
2019-06-26T04:27:15.984Z,22.17
2019-06-26T04:29:45.708Z,24.17
2019-06-26T04:32:15.659Z,24.90
2019-06-26T04:34:45.381Z,23.87
2019-06-26T04:37:15.277Z,26.00
2019-06-26T04:39:44.961Z,24.03
2019-06-26T04:42:14.645Z,22.90
2019-06-26T04:44:44.332Z,27.80
2019-06-26T04:47:14.055Z,28.47
2019-06-26T04:49:43.752Z,34.00
2019-06-26T04:52:13.467Z,24.63
2019-06-26T04:54:43.202Z,24.67
2019-06-26T04:57:12.867Z,25.13
2019-06-26T04:59:42.939Z,28.60
2019-06-26T05:02:12.605Z,29.73
2019-06-26T05:04:42.665Z,23.50
2019-06-26T05:07:12.390Z,29.07
2019-06-26T05:09:42.072Z,27.67
2019-06-26T05:12:11.741Z,32.70
2019-06-26T05:14:41.555Z,25.70
2019-06-26T05:17:11.320Z,28.03
2019-06-26T05:19:41.097Z,25.30
2019-06-26T05:22:11.034Z,27.73
2019-06-26T05:24:40.737Z,26.13
2019-06-26T05:27:10.718Z,25.90
2019-06-26T05:29:40.383Z,26.53
2019-06-26T05:32:10.167Z,27.53
2019-06-26T05:34:39.870Z,39.60
2019-06-26T05:37:09.577Z,28.10
2019-06-26T05:39:39.290Z,27.43
2019-06-26T05:42:09.466Z,27.70
2019-06-26T05:44:40.726Z,34.87
2019-06-26T05:47:10.516Z,35.33
2019-06-26T05:49:40.174Z,31.93
2019-06-26T05:52:10.168Z,33.13
2019-06-26T05:54:39.859Z,27.37
2019-06-26T05:57:09.591Z,34.87
2019-06-26T05:59:39.386Z,25.13
2019-06-26T06:02:09.499Z,34.17
2019-06-26T06:04:39.161Z,27.77
2019-06-26T06:07:08.832Z,28.73
2019-06-26T06:09:38.617Z,28.50
2019-06-26T06:12:08.310Z,31.47
2019-06-26T06:14:38.033Z,27.47
2019-06-26T06:17:07.721Z,28.80
2019-06-26T06:19:37.469Z,27.50
2019-06-26T06:22:07.160Z,29.87
2019-06-26T06:24:36.872Z,34.13
2019-06-26T06:27:06.657Z,25.73
2019-06-26T06:29:36.358Z,32.73
2019-06-26T06:32:06.281Z,33.83
2019-06-26T06:34:36.024Z,26.23
2019-06-26T06:37:05.987Z,27.07
2019-06-26T06:39:35.685Z,28.33
2019-06-26T06:42:05.568Z,26.60
2019-06-26T06:44:35.301Z,24.37
2019-06-26T06:47:08.803Z,27.43
2019-06-26T06:49:36.371Z,25.33
2019-06-26T06:52:06.283Z,22.33
2019-06-26T06:54:36.054Z,21.70
2019-06-26T06:57:05.952Z,26.23
2019-06-26T06:59:35.620Z,25.27
2019-06-26T07:02:05.396Z,25.47
2019-06-26T07:04:35.403Z,31.20
2019-06-26T07:07:05.167Z,37.30
2019-06-26T07:09:34.897Z,32.80
2019-06-26T07:12:04.745Z,25.70
2019-06-26T07:14:34.473Z,28.17
2019-06-26T07:17:19.215Z,31.87
2019-06-26T07:19:35.692Z,23.80
2019-06-26T07:22:07.394Z,25.43
2019-06-26T07:24:36.965Z,28.60
2019-06-26T07:27:06.957Z,22.83
2019-06-26T07:29:36.673Z,20.60
2019-06-26T07:32:06.327Z,22.53
2019-06-26T07:34:36.047Z,18.97
2019-06-26T07:37:05.964Z,25.80
2019-06-26T07:39:35.756Z,16.70
2019-06-26T07:42:05.559Z,23.73
2019-06-26T07:44:35.295Z,17.57
2019-06-26T07:47:18.394Z,25.77
2019-06-26T07:49:36.403Z,19.40
2019-06-26T07:52:06.095Z,19.87
2019-06-26T07:54:35.961Z,22.87
2019-06-26T07:57:05.653Z,24.13
2019-06-26T07:59:35.681Z,18.43
2019-06-26T08:02:05.431Z,20.57
2019-06-26T08:04:35.147Z,18.53
2019-06-26T08:07:04.880Z,18.27
2019-06-26T08:09:34.566Z,17.70
2019-06-26T08:12:04.369Z,19.10
2019-06-26T08:14:34.068Z,21.80
2019-06-26T08:17:03.727Z,13.30
2019-06-26T08:19:33.480Z,17.43
2019-06-26T08:22:03.149Z,15.10
2019-06-26T08:24:32.819Z,16.90
2019-06-26T08:27:02.531Z,13.80
2019-06-26T08:29:32.213Z,18.30
2019-06-26T08:32:01.935Z,22.43
2019-06-26T08:34:31.734Z,16.73
2019-06-26T08:37:01.374Z,20.57
2019-06-26T08:39:31.068Z,19.07
2019-06-26T08:42:00.862Z,28.63
2019-06-26T08:44:30.573Z,22.63
2019-06-26T08:47:00.267Z,23.30
2019-06-26T08:49:30.170Z,16.70
2019-06-26T08:52:00.640Z,19.63
2019-06-26T08:54:30.359Z,14.43
2019-06-26T08:57:00.419Z,16.43
2019-06-26T08:59:30.179Z,17.87
2019-06-26T09:01:59.927Z,12.90
2019-06-26T09:04:29.659Z,17.97
2019-06-26T09:06:59.343Z,23.73
2019-06-26T09:09:28.970Z,21.40
2019-06-26T09:11:58.733Z,17.60
2019-06-26T09:14:28.389Z,13.63
2019-06-26T09:16:58.149Z,16.47
2019-06-26T09:19:27.863Z,12.63
2019-06-26T09:21:57.846Z,20.20
2019-06-26T09:24:27.537Z,19.67
2019-06-26T09:26:57.239Z,13.20
2019-06-26T09:29:26.939Z,12.73
2019-06-26T09:31:56.674Z,14.60
2019-06-26T09:34:26.406Z,17.57
2019-06-26T09:36:56.130Z,14.33
2019-06-26T09:39:26.124Z,14.73
2019-06-26T09:41:55.832Z,11.73
2019-06-26T09:44:25.487Z,15.73
2019-06-26T09:46:55.224Z,16.50
2019-06-26T09:49:24.924Z,12.03
2019-06-26T09:51:54.589Z,15.53
2019-06-26T09:54:24.285Z,13.70
2019-06-26T09:56:53.949Z,14.73
2019-06-26T09:59:24.040Z,16.60
2019-06-26T10:01:53.733Z,19.03
2019-06-26T10:04:23.449Z,12.63
2019-06-26T10:06:53.199Z,16.27
2019-06-26T10:09:23.033Z,15.00
2019-06-26T10:11:52.857Z,15.33
2019-06-26T10:14:22.546Z,19.23
2019-06-26T10:16:52.199Z,12.57
2019-06-26T10:19:21.911Z,14.47
2019-06-26T10:21:51.712Z,14.27
2019-06-26T10:24:21.788Z,11.17
2019-06-26T10:26:51.541Z,14.27
2019-06-26T10:29:21.280Z,12.80
2019-06-26T10:31:51.002Z,9.73
2019-06-26T10:34:20.693Z,19.97
2019-06-26T10:36:50.727Z,19.37
2019-06-26T10:39:20.486Z,18.97
2019-06-26T10:41:54.584Z,12.50
2019-06-26T10:44:21.748Z,12.10
2019-06-26T10:46:51.662Z,20.87
2019-06-26T10:49:26.857Z,11.50
2019-06-26T10:51:53.133Z,28.70
2019-06-26T10:54:22.782Z,11.73
2019-06-26T10:56:52.523Z,13.13
2019-06-26T10:59:22.222Z,13.57
2019-06-26T11:01:51.996Z,18.37
2019-06-26T11:04:21.665Z,11.70
2019-06-26T11:06:51.505Z,16.20
2019-06-26T11:09:21.162Z,13.53
2019-06-26T11:11:51.256Z,17.20
2019-06-26T11:14:20.972Z,19.23
2019-06-26T11:16:50.648Z,15.67
2019-06-26T11:19:20.331Z,11.33
2019-06-26T11:21:50.101Z,13.13
2019-06-26T11:24:19.857Z,9.10
2019-06-26T11:26:49.566Z,12.10
2019-06-26T11:29:19.216Z,9.40
2019-06-26T11:31:48.908Z,20.20
2019-06-26T11:34:18.632Z,18.03
2019-06-26T11:37:02.822Z,11.47
2019-06-26T11:39:19.684Z,9.40
2019-06-26T11:41:49.418Z,11.73
2019-06-26T11:44:19.067Z,11.03
2019-06-26T11:46:48.793Z,10.67
2019-06-26T11:49:18.587Z,10.03
2019-06-26T11:51:48.304Z,8.50
2019-06-26T11:54:18.346Z,11.70
2019-06-26T11:56:48.100Z,11.60
2019-06-26T11:59:18.084Z,14.77
2019-06-26T12:01:48.086Z,13.40
2019-06-26T12:04:17.760Z,9.70
2019-06-26T12:06:47.470Z,12.63
2019-06-26T12:09:17.155Z,15.95
2019-06-26T12:11:46.843Z,14.33
2019-06-26T12:14:16.543Z,10.70
2019-06-26T12:16:46.262Z,8.60
2019-06-26T12:19:19.053Z,10.10
2019-06-26T12:21:47.415Z,8.67
2019-06-26T12:24:17.164Z,11.17
2019-06-26T12:26:46.958Z,13.53
2019-06-26T12:29:16.709Z,6.90
2019-06-26T12:31:46.513Z,24.67
2019-06-26T12:34:16.210Z,11.63
2019-06-26T12:36:45.861Z,13.97
2019-06-26T12:39:15.589Z,13.50
2019-06-26T12:41:45.236Z,14.17
2019-06-26T12:44:15.006Z,16.60
2019-06-26T12:46:44.696Z,11.43
2019-06-26T12:49:14.351Z,9.20
2019-06-26T12:51:44.077Z,12.07
2019-06-26T12:54:13.827Z,8.13
2019-06-26T12:56:43.535Z,11.97
2019-06-26T12:59:13.267Z,11.03
2019-06-26T13:01:43.180Z,9.33
2019-06-26T13:04:13.357Z,11.57
2019-06-26T13:06:43.058Z,12.83
2019-06-26T13:09:12.743Z,9.03
2019-06-26T13:11:42.532Z,13.53
2019-06-26T13:14:12.258Z,13.20
2019-06-26T13:16:42.057Z,11.67
2019-06-26T13:19:11.766Z,8.27
2019-06-26T13:21:41.812Z,8.67
2019-06-26T13:24:11.665Z,10.90
2019-06-26T13:26:41.298Z,15.50
2019-06-26T13:29:10.980Z,12.53
2019-06-26T13:31:40.717Z,10.50
2019-06-26T13:34:10.411Z,13.13
2019-06-26T13:36:40.133Z,19.17
2019-06-26T13:39:09.993Z,16.63
2019-06-26T13:41:39.762Z,14.97
2019-06-26T13:44:11.941Z,10.20
2019-06-26T13:46:41.590Z,9.60
2019-06-26T13:49:11.342Z,6.97
2019-06-26T13:51:41.106Z,15.45
2019-06-26T13:54:10.848Z,8.28
2019-06-26T13:56:40.467Z,11.50
2019-06-26T13:59:10.258Z,9.60
2019-06-26T14:01:39.961Z,11.00
2019-06-26T14:07:00.436Z,10.23
2019-06-26T14:09:30.122Z,10.60
2019-06-26T14:12:00.127Z,17.80
2019-06-26T14:14:52.556Z,15.40
2019-06-26T14:17:01.226Z,30.00
2019-06-26T14:19:31.176Z,8.43
2019-06-26T14:22:01.144Z,11.90
2019-06-26T14:24:31.178Z,12.13
2019-06-26T14:27:00.847Z,12.80
2019-06-26T14:29:30.554Z,12.43
2019-06-26T14:32:00.459Z,12.20
2019-06-26T14:34:31.146Z,15.00
2019-06-26T14:37:00.830Z,9.43
2019-06-26T14:39:30.619Z,17.93
2019-06-26T14:42:00.324Z,13.40
2019-06-26T14:44:30.083Z,8.83
2019-06-26T14:46:59.758Z,9.30
2019-06-26T14:49:29.440Z,10.00
2019-06-26T14:52:35.327Z,14.33
2019-06-26T14:55:05.747Z,17.30
2019-06-26T14:57:35.411Z,10.13
2019-06-26T15:00:07.151Z,14.20
2019-06-26T15:02:36.842Z,12.20
2019-06-26T15:09:06.640Z,13.43
2019-06-26T15:11:36.362Z,15.40
2019-06-26T15:14:06.206Z,16.30
2019-06-26T15:16:35.867Z,8.70
2019-06-26T15:19:05.616Z,10.13
2019-06-26T15:21:35.316Z,12.50
2019-06-26T15:24:05.329Z,9.80
2019-06-26T15:26:35.139Z,14.50
2019-06-26T15:29:04.788Z,9.73
2019-06-26T15:31:34.499Z,9.90
2019-06-26T15:34:04.276Z,14.77
2019-06-26T15:36:33.947Z,18.83
2019-06-26T15:39:04.731Z,16.23
2019-06-26T15:41:34.489Z,12.70
2019-06-26T15:44:04.598Z,16.47
2019-06-26T15:46:34.334Z,12.67
2019-06-26T15:49:04.131Z,16.53
2019-06-26T15:51:33.856Z,12.20
2019-06-26T15:54:03.577Z,10.20
2019-06-26T15:56:33.257Z,11.43
2019-06-26T15:59:03.089Z,19.17
2019-06-26T16:01:32.748Z,9.27
2019-06-26T16:04:02.471Z,15.33
2019-06-26T16:06:32.163Z,12.10
2019-06-26T16:09:01.883Z,11.47
2019-06-26T16:11:31.573Z,12.07
2019-06-26T16:14:01.536Z,9.97
2019-06-26T16:16:32.311Z,15.20
2019-06-26T16:19:07.079Z,11.10
2019-06-26T16:21:36.786Z,12.20
2019-06-26T16:24:06.820Z,9.87
2019-06-26T16:26:36.491Z,12.27
2019-06-26T16:29:06.146Z,13.03
2019-06-26T16:31:35.928Z,13.07
2019-06-26T16:34:05.752Z,17.80
2019-06-26T16:36:35.392Z,18.17
2019-06-26T16:39:07.922Z,14.93
2019-06-26T16:41:38.177Z,11.57
2019-06-26T16:44:07.953Z,14.90
2019-06-26T16:46:38.042Z,17.13
2019-06-26T16:49:08.240Z,12.97
2019-06-26T16:51:38.207Z,18.77
2019-06-26T16:54:07.895Z,11.40
2019-06-26T16:56:37.641Z,11.47
2019-06-26T16:59:07.362Z,14.20
2019-06-26T17:01:37.074Z,15.53
2019-06-26T17:04:07.100Z,10.80
2019-06-26T17:06:37.599Z,8.40
2019-06-26T17:09:09.672Z,12.87
2019-06-26T17:11:39.382Z,10.00
2019-06-26T17:14:09.039Z,18.60
2019-06-26T17:16:38.750Z,18.97
2019-06-26T17:19:08.475Z,12.07
2019-06-26T17:21:38.211Z,10.10
2019-06-26T17:24:07.961Z,18.07
2019-06-26T17:26:37.670Z,14.27
2019-06-26T17:29:07.327Z,11.23
2019-06-26T17:31:37.388Z,9.43
2019-06-26T17:34:07.057Z,13.00
2019-06-26T17:36:36.777Z,11.77
2019-06-26T17:39:07.600Z,12.60
2019-06-26T17:41:37.409Z,8.90
2019-06-26T17:44:07.165Z,16.13
2019-06-26T17:46:37.200Z,7.70
2019-06-26T17:49:06.968Z,8.70
2019-06-26T17:51:36.947Z,12.57
2019-06-26T17:54:06.642Z,13.50
2019-06-26T17:56:36.366Z,11.80
2019-06-26T17:59:06.314Z,13.83
2019-06-26T18:01:36.407Z,9.70
2019-06-26T18:04:06.237Z,10.23
2019-06-26T18:06:36.052Z,9.60
2019-06-26T18:09:12.182Z,12.53
2019-06-26T18:11:40.848Z,11.00
2019-06-26T18:14:10.605Z,13.20
2019-06-26T18:16:40.434Z,10.03
2019-06-26T18:19:10.122Z,13.27
2019-06-26T18:21:39.821Z,9.93
2019-06-26T18:24:09.565Z,10.93
2019-06-26T18:26:39.200Z,8.87
2019-06-26T18:29:08.928Z,8.33
2019-06-26T18:31:38.883Z,16.90
2019-06-26T18:34:08.540Z,12.30
2019-06-26T18:36:38.273Z,17.23
2019-06-26T18:39:09.221Z,15.00
2019-06-26T18:41:38.883Z,13.43
2019-06-26T18:44:08.550Z,8.93
2019-06-26T18:46:38.284Z,14.97
2019-06-26T18:49:07.989Z,10.33
2019-06-26T18:51:37.661Z,14.60
2019-06-26T18:54:31.452Z,15.33
2019-06-26T18:57:01.141Z,17.03
2019-06-26T18:59:30.899Z,21.43
2019-06-26T19:02:00.603Z,24.60
2019-06-26T19:04:31.955Z,18.63
2019-06-26T19:07:01.627Z,18.30
2019-06-26T19:09:31.345Z,15.10
2019-06-26T19:12:01.226Z,15.20
2019-06-26T19:14:30.888Z,14.43
2019-06-26T19:17:00.652Z,12.53
2019-06-26T19:19:30.560Z,19.60
2019-06-26T19:22:00.215Z,12.30
2019-06-26T19:24:29.888Z,18.73
2019-06-26T19:26:59.532Z,12.83
2019-06-26T19:29:29.213Z,18.43
2019-06-26T19:31:58.888Z,21.03
2019-06-26T19:34:28.593Z,13.57
2019-06-26T19:36:58.240Z,11.90
2019-06-26T19:39:27.928Z,12.33
2019-06-26T19:41:57.618Z,13.23
2019-06-26T19:44:27.314Z,14.43
2019-06-26T19:46:56.999Z,14.90
2019-06-26T19:49:26.717Z,13.33
2019-06-26T19:51:56.410Z,19.53
2019-06-26T19:54:28.646Z,29.20
2019-06-26T19:56:57.648Z,12.83
2019-06-26T19:59:27.629Z,25.93
2019-06-26T20:01:57.366Z,21.00
2019-06-26T20:04:27.063Z,19.90
2019-06-26T20:06:56.836Z,14.50
2019-06-26T20:09:26.661Z,16.43
2019-06-26T20:11:56.348Z,28.60
2019-06-26T20:14:26.038Z,16.03
2019-06-26T20:16:56.335Z,17.17
2019-06-26T20:19:26.089Z,18.53
2019-06-26T20:21:55.772Z,13.90
2019-06-26T20:24:25.484Z,13.67
2019-06-26T20:26:55.216Z,14.00
2019-06-26T20:29:24.914Z,14.33
2019-06-26T20:31:54.601Z,14.63
2019-06-26T20:34:24.257Z,15.83
2019-06-26T20:36:54.025Z,17.40
2019-06-26T20:39:23.729Z,20.10
2019-06-26T20:41:53.426Z,12.80
2019-06-26T20:44:23.121Z,17.90
2019-06-26T20:46:52.880Z,24.07
2019-06-26T20:49:22.580Z,13.67
2019-06-26T20:51:52.307Z,24.00
2019-06-26T20:54:22.465Z,11.33
2019-06-26T20:56:52.250Z,23.43
2019-06-26T20:59:22.005Z,16.53
2019-06-26T21:01:52.408Z,12.43
2019-06-26T21:04:22.139Z,18.20
2019-06-26T21:06:51.834Z,13.60
2019-06-26T21:09:21.735Z,23.93
2019-06-26T21:11:51.699Z,14.17
2019-06-26T21:14:40.687Z,17.93
2019-06-26T21:17:10.360Z,18.73
2019-06-26T21:19:40.059Z,13.53
2019-06-26T21:22:09.766Z,20.17
2019-06-26T21:24:39.701Z,14.70
2019-06-26T21:27:32.098Z,21.70
2019-06-26T21:30:00.784Z,17.80
2019-06-26T21:32:30.548Z,14.43
2019-06-26T21:35:00.268Z,12.47
2019-06-26T21:37:29.962Z,20.83
2019-06-26T21:39:59.702Z,18.37
2019-06-26T21:42:29.421Z,14.63
2019-06-26T21:44:59.126Z,18.23
2019-06-26T21:47:28.864Z,18.77
2019-06-26T21:49:58.596Z,10.80
2019-06-26T21:52:28.366Z,15.03
2019-06-26T21:54:58.321Z,13.57
2019-06-26T21:57:27.999Z,14.60
2019-06-26T21:59:57.694Z,26.27
2019-06-26T22:02:27.433Z,20.43
2019-06-26T22:04:57.160Z,14.80
2019-06-26T22:07:26.849Z,16.80
2019-06-26T22:09:56.715Z,18.00
2019-06-26T22:12:26.535Z,15.90
2019-06-26T22:14:56.245Z,18.97
2019-06-26T22:17:26.207Z,17.17
2019-06-26T22:19:56.045Z,19.27
2019-06-26T22:22:25.711Z,15.67
2019-06-26T22:24:55.720Z,19.17
2019-06-26T22:27:25.991Z,13.17
2019-06-26T22:29:55.692Z,12.73
2019-06-26T22:32:25.431Z,12.67
2019-06-26T22:34:55.185Z,11.80
2019-06-26T22:37:25.225Z,24.33
2019-06-26T22:39:54.885Z,12.90
2019-06-26T22:42:24.898Z,27.70
2019-06-26T22:44:54.609Z,12.03
2019-06-26T22:47:24.512Z,9.37
2019-06-26T22:49:54.199Z,16.83
2019-06-26T22:52:24.014Z,12.87
2019-06-26T22:54:53.676Z,21.97
2019-06-26T22:57:23.386Z,23.00
2019-06-26T22:59:53.166Z,15.37
2019-06-26T23:02:22.816Z,12.83
2019-06-26T23:04:52.496Z,17.83
2019-06-26T23:07:22.214Z,16.63
2019-06-26T23:09:51.870Z,15.87
2019-06-26T23:12:22.545Z,13.20
2019-06-26T23:14:52.268Z,15.47
2019-06-26T23:17:22.156Z,17.67
2019-06-26T23:19:51.806Z,16.90
2019-06-26T23:22:21.525Z,17.63
2019-06-26T23:24:51.240Z,14.77
2019-06-26T23:27:21.002Z,12.40
2019-06-26T23:29:50.745Z,17.13
2019-06-26T23:32:20.889Z,16.57
2019-06-26T23:34:50.621Z,16.30
2019-06-26T23:37:20.290Z,24.50
2019-06-26T23:39:50.212Z,19.77
2019-06-26T23:42:19.940Z,17.40
2019-06-26T23:44:49.596Z,19.00
2019-06-26T23:47:19.545Z,13.97
2019-06-26T23:49:49.293Z,19.37
2019-06-26T23:52:18.993Z,19.23
2019-06-26T23:54:48.695Z,14.63
2019-06-26T23:57:18.786Z,15.57
2019-06-26T23:59:48.591Z,15.40
